createdAt,value
2018-04-17T00:00:32.445Z,9.47
2018-04-17T00:02:58.732Z,10.93
2018-04-17T00:05:25.009Z,8.40
2018-04-17T00:07:51.354Z,9.40
2018-04-17T00:10:17.584Z,9.23
2018-04-17T00:12:43.811Z,9.60
2018-04-17T00:15:10.819Z,9.43
2018-04-17T00:17:37.191Z,10.40
2018-04-17T00:20:03.446Z,8.37
2018-04-17T00:22:30.471Z,10.40
2018-04-17T00:24:57.581Z,11.30
2018-04-17T00:27:23.948Z,12.10
2018-04-17T00:29:50.175Z,10.90
2018-04-17T00:32:17.206Z,10.80
2018-04-17T00:34:43.434Z,11.40
2018-04-17T00:37:09.913Z,8.77
2018-04-17T00:39:36.214Z,9.93
2018-04-17T00:42:02.505Z,9.93
2018-04-17T00:44:28.759Z,10.97
2018-04-17T00:46:55.061Z,10.40
2018-04-17T00:49:21.271Z,10.90
2018-04-17T00:51:48.286Z,11.33
2018-04-17T00:54:16.109Z,11.03
2018-04-17T00:56:42.328Z,11.20
2018-04-17T00:59:08.553Z,11.77
2018-04-17T01:01:34.925Z,13.53
2018-04-17T01:04:01.383Z,11.63
2018-04-17T01:06:27.621Z,11.20
2018-04-17T01:08:54.121Z,13.77
2018-04-17T01:11:20.485Z,10.90
2018-04-17T01:13:47.509Z,11.60
2018-04-17T01:16:13.734Z,10.83
2018-04-17T01:18:39.987Z,10.47
2018-04-17T01:21:07.012Z,12.13
2018-04-17T01:23:33.341Z,10.30
2018-04-17T01:25:59.587Z,11.70
2018-04-17T01:28:26.559Z,11.27
2018-04-17T01:30:53.587Z,12.43
2018-04-17T01:33:21.357Z,12.83
2018-04-17T01:35:47.600Z,13.87
2018-04-17T01:38:14.633Z,12.70
2018-04-17T01:40:41.687Z,12.40
2018-04-17T01:43:08.652Z,12.80
2018-04-17T01:45:34.951Z,12.93
2018-04-17T01:48:01.153Z,13.90
2018-04-17T01:50:27.397Z,10.87
2018-04-17T01:52:53.729Z,12.63
2018-04-17T01:55:20.792Z,13.83
2018-04-17T01:57:47.787Z,13.00
2018-04-17T02:00:14.016Z,12.90
2018-04-17T02:02:40.310Z,13.57
2018-04-17T02:05:07.563Z,14.80
2018-04-17T02:07:34.706Z,12.60
2018-04-17T02:10:01.797Z,12.70
2018-04-17T02:12:28.069Z,13.47
2018-04-17T02:14:54.318Z,13.87
2018-04-17T02:17:21.342Z,15.30
2018-04-17T02:19:47.594Z,17.70
2018-04-17T02:22:14.617Z,15.73
2018-04-17T02:24:40.873Z,16.27
2018-04-17T02:27:07.909Z,15.27
2018-04-17T02:29:34.880Z,14.40
2018-04-17T02:32:01.834Z,15.00
2018-04-17T02:34:28.904Z,15.10
2018-04-17T02:36:55.129Z,15.37
2018-04-17T02:39:28.469Z,13.57
2018-04-17T02:41:54.731Z,17.50
2018-04-17T02:44:21.868Z,15.30
2018-04-17T02:46:48.104Z,15.10
2018-04-17T02:49:15.149Z,12.60
2018-04-17T02:51:42.276Z,14.00
2018-04-17T02:54:08.490Z,12.63
2018-04-17T02:56:34.739Z,17.63
2018-04-17T02:59:01.780Z,14.07
2018-04-17T03:01:27.999Z,14.43
2018-04-17T03:03:54.342Z,16.57
2018-04-17T03:06:20.677Z,12.87
2018-04-17T03:08:46.960Z,14.40
2018-04-17T03:11:13.240Z,18.30
2018-04-17T03:13:39.886Z,17.73
2018-04-17T03:16:06.828Z,17.83
2018-04-17T03:18:33.088Z,18.30
2018-04-17T03:20:59.345Z,16.87
2018-04-17T03:23:25.578Z,16.47
2018-04-17T03:25:51.883Z,15.77
2018-04-17T03:28:18.801Z,17.10
2018-04-17T03:30:45.797Z,17.97
2018-04-17T03:33:12.028Z,17.27
2018-04-17T03:35:39.226Z,16.23
2018-04-17T03:38:05.820Z,20.50
2018-04-17T03:40:32.051Z,18.90
2018-04-17T03:42:58.502Z,23.90
2018-04-17T03:45:24.777Z,19.00
2018-04-17T03:47:51.065Z,19.83
2018-04-17T03:50:17.366Z,18.30
2018-04-17T03:52:43.668Z,20.77
2018-04-17T03:55:10.744Z,18.97
2018-04-17T03:57:37.034Z,18.00
2018-04-17T04:00:04.192Z,17.17
2018-04-17T04:02:31.197Z,17.80
2018-04-17T04:04:57.453Z,21.33
2018-04-17T04:07:24.413Z,18.67
2018-04-17T04:09:51.427Z,18.43
2018-04-17T04:12:17.708Z,16.00
2018-04-17T04:14:43.918Z,17.10
2018-04-17T04:17:23.304Z,20.67
2018-04-17T04:20:02.110Z,20.70
2018-04-17T04:22:40.620Z,19.83
2018-04-17T04:28:11.274Z,13.67
2018-04-17T04:30:37.469Z,21.50
2018-04-17T04:33:04.453Z,21.10
2018-04-17T04:35:30.697Z,22.27
2018-04-17T04:37:56.915Z,21.50
2018-04-17T04:40:23.213Z,16.70
2018-04-17T04:42:50.182Z,19.40
2018-04-17T04:45:16.508Z,21.90
2018-04-17T04:47:42.729Z,20.80
2018-04-17T04:50:09.315Z,23.87
2018-04-17T04:52:35.629Z,21.43
2018-04-17T04:55:01.906Z,19.77
2018-04-17T04:57:28.585Z,15.70
2018-04-17T04:59:54.794Z,23.43
2018-04-17T05:02:21.873Z,20.07
2018-04-17T05:04:48.761Z,25.60
2018-04-17T05:07:14.955Z,22.10
2018-04-17T05:09:41.650Z,22.53
2018-04-17T05:12:07.997Z,20.87
2018-04-17T05:14:34.497Z,20.53
2018-04-17T05:17:01.477Z,25.97
2018-04-17T05:19:28.779Z,27.77
2018-04-17T05:22:02.806Z,28.00
2018-04-17T05:24:29.129Z,32.60
2018-04-17T05:26:55.356Z,34.23
2018-04-17T05:29:21.621Z,27.83
2018-04-17T05:31:48.606Z,29.77
2018-04-17T05:34:14.900Z,27.67
2018-04-17T05:36:41.538Z,33.47
2018-04-17T05:39:08.499Z,28.87
2018-04-17T05:41:35.463Z,30.83
2018-04-17T05:44:01.697Z,31.97
2018-04-17T05:46:27.992Z,31.53
2018-04-17T05:48:55.131Z,32.00
2018-04-17T05:51:21.416Z,32.40
2018-04-17T05:53:47.758Z,19.27
2018-04-17T05:56:14.123Z,28.40
2018-04-17T05:58:40.383Z,28.67
2018-04-17T06:01:06.794Z,25.30
2018-04-17T06:03:34.203Z,24.87
2018-04-17T06:06:00.667Z,27.13
2018-04-17T06:08:26.957Z,26.50
2018-04-17T06:10:53.438Z,26.83
2018-04-17T06:13:21.239Z,30.03
2018-04-17T06:15:47.490Z,26.50
2018-04-17T06:18:13.709Z,24.50
2018-04-17T06:20:40.215Z,25.37
2018-04-17T06:23:07.214Z,22.20
2018-04-17T06:25:33.667Z,23.00
2018-04-17T06:27:59.904Z,19.00
2018-04-17T06:30:27.908Z,20.70
2018-04-17T06:32:54.160Z,22.20
2018-04-17T06:35:20.423Z,17.97
2018-04-17T06:37:46.668Z,20.00
2018-04-17T06:40:14.855Z,18.60
2018-04-17T06:42:41.812Z,19.60
2018-04-17T06:45:08.829Z,19.77
2018-04-17T06:47:36.463Z,19.90
2018-04-17T06:50:03.402Z,18.50
2018-04-17T06:52:29.636Z,17.17
2018-04-17T06:54:55.880Z,18.90
2018-04-17T06:57:22.107Z,18.00
2018-04-17T06:59:48.398Z,19.23
2018-04-17T07:02:14.673Z,16.40
2018-04-17T07:04:41.016Z,16.93
2018-04-17T07:07:07.237Z,18.67
2018-04-17T07:09:33.521Z,15.00
2018-04-17T07:11:59.747Z,17.87
2018-04-17T07:14:25.965Z,15.43
2018-04-17T07:16:53.051Z,28.83
2018-04-17T07:19:19.319Z,16.20
2018-04-17T07:21:45.584Z,14.27
2018-04-17T07:24:11.873Z,13.40
2018-04-17T07:26:38.390Z,11.40
2018-04-17T07:29:04.721Z,10.17
2018-04-17T07:31:30.998Z,11.60
2018-04-17T07:33:58.022Z,9.00
2018-04-17T07:36:24.411Z,7.67
2018-04-17T07:38:50.817Z,7.80
2018-04-17T07:41:17.088Z,7.10
2018-04-17T07:43:43.492Z,7.87
2018-04-17T07:46:09.711Z,7.70
2018-04-17T07:48:45.100Z,7.70
2018-04-17T07:51:11.449Z,7.87
2018-04-17T07:53:37.678Z,7.50
2018-04-17T07:56:03.953Z,6.50
2018-04-17T07:58:30.407Z,5.90
2018-04-17T08:00:56.639Z,6.20
2018-04-17T08:03:22.871Z,6.30
2018-04-17T08:05:49.412Z,6.43
2018-04-17T08:08:15.639Z,4.63
2018-04-17T08:10:41.880Z,4.80
2018-04-17T08:13:08.090Z,4.67
2018-04-17T08:15:34.469Z,5.37
2018-04-17T08:18:01.539Z,3.87
2018-04-17T08:20:27.769Z,3.27
2018-04-17T08:22:54.068Z,3.60
2018-04-17T08:25:20.326Z,3.37
2018-04-17T08:27:47.308Z,3.47
2018-04-17T08:30:13.605Z,5.00
2018-04-17T08:32:40.696Z,3.53
2018-04-17T08:35:06.970Z,5.83
2018-04-17T08:37:34.035Z,4.10
2018-04-17T08:40:01.109Z,4.27
2018-04-17T08:42:29.454Z,4.73
2018-04-17T08:44:56.472Z,4.10
2018-04-17T08:47:22.992Z,4.33
2018-04-17T08:49:49.254Z,4.13
2018-04-17T08:52:16.241Z,5.00
2018-04-17T08:54:42.493Z,6.27
2018-04-17T08:57:08.764Z,4.93
2018-04-17T08:59:35.791Z,4.73
2018-04-17T09:02:02.793Z,5.17
2018-04-17T09:04:29.023Z,5.77
2018-04-17T09:06:55.253Z,6.00
2018-04-17T09:09:21.472Z,5.63
2018-04-17T09:11:48.175Z,5.70
2018-04-17T09:14:14.364Z,5.80
2018-04-17T09:16:40.593Z,7.27
2018-04-17T09:19:06.974Z,5.60
2018-04-17T09:21:33.977Z,5.40
2018-04-17T09:24:01.003Z,5.83
2018-04-17T09:26:28.240Z,6.10
2018-04-17T09:28:55.258Z,6.70
2018-04-17T09:31:21.554Z,6.33
2018-04-17T09:33:47.901Z,7.80
2018-04-17T09:36:14.215Z,5.93
2018-04-17T09:38:40.439Z,5.90
2018-04-17T09:41:06.662Z,6.40
2018-04-17T09:43:32.888Z,5.20
2018-04-17T09:45:59.183Z,6.07
2018-04-17T09:48:26.469Z,7.73
2018-04-17T09:50:52.856Z,7.47
2018-04-17T09:53:19.110Z,6.30
2018-04-17T09:55:46.429Z,7.30
2018-04-17T09:58:12.722Z,7.37
2018-04-17T10:00:45.110Z,7.73
2018-04-17T10:03:11.363Z,8.63
2018-04-17T10:05:37.684Z,6.83
2018-04-17T10:08:03.952Z,7.83
2018-04-17T10:10:30.925Z,8.00
2018-04-17T10:12:57.328Z,7.80
2018-04-17T10:15:24.409Z,8.40
2018-04-17T10:17:50.727Z,8.20
2018-04-17T10:20:17.144Z,8.00
2018-04-17T10:22:44.088Z,7.20
2018-04-17T10:25:10.635Z,8.27
2018-04-17T10:27:37.058Z,8.53
2018-04-17T10:30:04.072Z,8.30
2018-04-17T10:32:31.246Z,8.60
2018-04-17T10:34:57.670Z,8.43
2018-04-17T10:37:23.881Z,9.33
2018-04-17T10:39:50.521Z,8.80
2018-04-17T10:42:16.736Z,10.60
2018-04-17T10:44:43.004Z,10.23
2018-04-17T10:47:09.456Z,8.87
2018-04-17T10:49:36.495Z,8.90
2018-04-17T10:52:03.504Z,10.83
2018-04-17T10:54:29.765Z,8.80
2018-04-17T10:56:56.728Z,9.33
2018-04-17T10:59:23.765Z,9.03
2018-04-17T11:01:50.911Z,8.90
2018-04-17T11:04:17.937Z,10.10
2018-04-17T11:06:44.205Z,8.77
2018-04-17T11:09:11.198Z,9.40
2018-04-17T11:11:37.593Z,10.10
2018-04-17T11:14:03.869Z,9.90
2018-04-17T11:16:30.228Z,11.73
2018-04-17T11:18:56.454Z,10.30
2018-04-17T11:21:22.726Z,10.90
2018-04-17T11:23:49.024Z,10.20
2018-04-17T11:26:16.140Z,12.03
2018-04-17T11:28:42.388Z,10.33
2018-04-17T11:31:09.432Z,9.43
2018-04-17T11:33:36.442Z,9.80
2018-04-17T11:36:02.798Z,12.40
2018-04-17T11:38:29.040Z,12.23
2018-04-17T11:40:55.429Z,10.33
2018-04-17T11:43:21.868Z,11.20
2018-04-17T11:45:48.250Z,10.93
2018-04-17T11:48:14.465Z,11.47
2018-04-17T11:50:40.797Z,12.27
2018-04-17T11:53:07.094Z,11.90
2018-04-17T11:55:33.348Z,12.20
2018-04-17T11:57:59.616Z,9.40
2018-04-17T12:00:26.574Z,9.87
2018-04-17T12:02:52.962Z,10.40
2018-04-17T12:05:19.190Z,10.47
2018-04-17T12:07:45.480Z,10.47
2018-04-17T12:10:11.755Z,11.43
2018-04-17T12:12:38.032Z,10.33
2018-04-17T12:15:04.273Z,10.87
2018-04-17T12:17:30.608Z,11.00
2018-04-17T12:19:56.833Z,11.07
2018-04-17T12:22:23.120Z,10.57
2018-04-17T12:24:49.461Z,10.97
2018-04-17T12:27:16.471Z,10.50
2018-04-17T12:29:42.785Z,11.07
2018-04-17T12:32:09.027Z,11.83
2018-04-17T12:34:35.294Z,12.27
2018-04-17T12:37:02.278Z,11.57
2018-04-17T12:39:28.917Z,11.00
2018-04-17T12:41:55.147Z,11.67
2018-04-17T12:44:21.443Z,13.40
2018-04-17T12:46:48.551Z,12.13
2018-04-17T12:49:14.876Z,12.13
2018-04-17T12:51:41.145Z,12.90
2018-04-17T12:54:08.209Z,13.70
2018-04-17T12:56:34.979Z,14.57
2018-04-17T12:59:01.235Z,14.80
2018-04-17T13:01:27.516Z,14.37
2018-04-17T13:03:53.842Z,15.23
2018-04-17T13:06:20.078Z,15.50
2018-04-17T13:08:46.335Z,13.60
2018-04-17T13:11:12.740Z,14.40
2018-04-17T13:13:39.129Z,12.83
2018-04-17T13:16:06.143Z,14.10
2018-04-17T13:18:32.521Z,15.07
2018-04-17T13:20:58.753Z,17.30
2018-04-17T13:23:25.006Z,17.43
2018-04-17T13:25:52.132Z,17.77
2018-04-17T13:28:18.510Z,16.87
2018-04-17T13:30:44.773Z,15.00
2018-04-17T13:33:11.025Z,17.90
2018-04-17T13:35:37.272Z,16.67
2018-04-17T13:38:04.258Z,16.03
2018-04-17T13:40:30.484Z,17.30
2018-04-17T13:42:56.735Z,16.53
2018-04-17T13:45:23.125Z,18.03
2018-04-17T13:47:49.494Z,17.50
2018-04-17T13:50:15.742Z,17.73
2018-04-17T13:52:42.045Z,18.60
2018-04-17T13:55:08.298Z,19.13
2018-04-17T13:57:34.549Z,17.00
2018-04-17T14:00:01.653Z,19.80
2018-04-17T14:02:27.910Z,19.07
2018-04-17T14:04:54.168Z,19.40
2018-04-17T14:07:21.209Z,17.43
2018-04-17T14:09:48.659Z,17.40
2018-04-17T14:12:15.751Z,16.40
2018-04-17T14:14:42.028Z,18.33
2018-04-17T14:17:09.110Z,17.23
2018-04-17T14:19:35.401Z,18.17
2018-04-17T14:22:01.648Z,17.10
2018-04-17T14:24:28.644Z,18.50
2018-04-17T14:26:54.898Z,17.13
2018-04-17T14:29:21.168Z,19.83
2018-04-17T14:31:48.170Z,16.67
2018-04-17T14:34:14.475Z,17.27
2018-04-17T14:36:41.148Z,16.37
2018-04-17T14:39:07.534Z,15.17
2018-04-17T14:41:34.029Z,11.30
2018-04-17T14:44:00.334Z,13.57
2018-04-17T14:46:26.652Z,13.50
2018-04-17T14:48:52.889Z,12.20
2018-04-17T14:51:19.156Z,12.07
2018-04-17T14:53:45.385Z,11.50
2018-04-17T14:56:11.793Z,11.53
2018-04-17T14:58:38.205Z,11.63
2018-04-17T15:01:04.570Z,12.07
2018-04-17T15:03:30.859Z,12.70
2018-04-17T15:05:57.171Z,11.23
2018-04-17T15:08:23.417Z,11.40
2018-04-17T15:10:50.277Z,11.23
2018-04-17T15:13:16.514Z,12.93
2018-04-17T15:15:42.999Z,12.53
2018-04-17T15:18:10.139Z,11.70
2018-04-17T15:20:36.497Z,11.83
2018-04-17T15:23:02.793Z,12.20
2018-04-17T15:25:29.049Z,13.27
2018-04-17T15:27:56.248Z,12.10
2018-04-17T15:30:22.561Z,11.70
2018-04-17T15:32:48.995Z,13.00
2018-04-17T15:35:15.252Z,13.37
2018-04-17T15:37:41.517Z,12.27
2018-04-17T15:40:08.529Z,13.43
2018-04-17T15:42:34.812Z,11.50
2018-04-17T15:45:01.049Z,12.30
2018-04-17T15:47:27.340Z,11.77
2018-04-17T15:49:53.715Z,12.33
2018-04-17T15:52:20.053Z,12.70
2018-04-17T15:54:46.351Z,11.77
2018-04-17T15:57:13.505Z,12.27
2018-04-17T15:59:40.570Z,13.50
2018-04-17T16:02:06.831Z,12.13
2018-04-17T16:04:33.064Z,12.80
2018-04-17T16:06:59.296Z,13.50
2018-04-17T16:09:25.600Z,13.77
2018-04-17T16:11:51.879Z,12.27
2018-04-17T16:14:18.158Z,13.70
2018-04-17T16:16:44.569Z,13.53
2018-04-17T16:19:20.054Z,12.47
2018-04-17T16:21:52.689Z,12.70
2018-04-17T16:24:19.124Z,14.40
2018-04-17T16:26:48.809Z,13.27
2018-04-17T16:29:15.053Z,12.80
2018-04-17T16:31:42.070Z,12.63
2018-04-17T16:34:08.393Z,13.07
2018-04-17T16:36:34.655Z,12.57
2018-04-17T16:39:00.965Z,13.03
2018-04-17T16:41:27.641Z,11.60
2018-04-17T16:43:54.647Z,12.53
2018-04-17T16:46:20.916Z,12.77
2018-04-17T16:48:47.956Z,13.57
2018-04-17T16:51:15.004Z,13.37
2018-04-17T16:53:41.509Z,15.23
2018-04-17T16:56:07.889Z,14.30
2018-04-17T16:58:34.218Z,15.30
2018-04-17T17:01:00.510Z,13.70
2018-04-17T17:03:26.741Z,20.70
2018-04-17T17:05:53.073Z,14.33
2018-04-17T17:08:19.388Z,14.93
2018-04-17T17:10:45.698Z,16.43
2018-04-17T17:13:12.428Z,15.37
2018-04-17T17:15:38.819Z,15.53
2018-04-17T17:18:05.817Z,14.40
2018-04-17T17:20:32.208Z,14.80
2018-04-17T17:22:59.258Z,13.57
2018-04-17T17:25:26.632Z,13.20
2018-04-17T17:27:52.945Z,12.00
2018-04-17T17:30:19.974Z,11.27
2018-04-17T17:32:46.238Z,11.53
2018-04-17T17:35:12.660Z,11.63
2018-04-17T17:37:39.003Z,11.23
2018-04-17T17:40:05.428Z,10.83
2018-04-17T17:42:32.640Z,12.35
2018-04-17T17:44:58.889Z,11.57
2018-04-17T17:47:25.240Z,12.60
2018-04-17T17:49:52.272Z,12.00
2018-04-17T17:52:18.555Z,12.23
2018-04-17T17:54:44.909Z,11.30
2018-04-17T17:57:11.302Z,11.30
2018-04-17T17:59:37.547Z,11.27
2018-04-17T18:02:03.903Z,12.47
2018-04-17T18:04:30.253Z,12.13
2018-04-17T18:06:56.736Z,12.20
2018-04-17T18:09:23.130Z,12.53
2018-04-17T18:11:50.640Z,12.33
2018-04-17T18:14:16.932Z,12.20
2018-04-17T18:16:43.928Z,12.67
2018-04-17T18:19:10.281Z,12.27
2018-04-17T18:21:36.545Z,11.90
2018-04-17T18:24:02.905Z,12.33
2018-04-17T18:26:29.298Z,12.17
2018-04-17T18:28:55.773Z,12.87
2018-04-17T18:31:22.330Z,12.50
2018-04-17T18:33:48.718Z,13.40
2018-04-17T18:36:15.740Z,13.17
2018-04-17T18:38:42.201Z,12.43
2018-04-17T18:41:09.182Z,13.40
2018-04-17T18:43:35.513Z,12.50
2018-04-17T18:46:01.765Z,12.87
2018-04-17T18:48:28.076Z,12.63
2018-04-17T18:50:54.319Z,16.43
2018-04-17T18:53:20.683Z,14.40
2018-04-17T18:55:47.777Z,13.03
2018-04-17T18:58:14.061Z,12.20
2018-04-17T19:00:41.075Z,13.27
2018-04-17T19:03:07.326Z,12.93
2018-04-17T19:05:33.561Z,13.70
2018-04-17T19:08:00.583Z,14.90
2018-04-17T19:10:26.860Z,16.70
2018-04-17T19:12:53.850Z,15.43
2018-04-17T19:15:20.281Z,16.23
2018-04-17T19:17:46.607Z,15.57
2018-04-17T19:20:12.889Z,13.90
2018-04-17T19:22:39.948Z,13.83
2018-04-17T19:25:07.702Z,13.40
2018-04-17T19:27:34.682Z,14.03
2018-04-17T19:30:01.007Z,14.17
2018-04-17T19:32:27.345Z,11.97
2018-04-17T19:34:53.595Z,13.30
2018-04-17T19:37:19.912Z,14.10
2018-04-17T19:39:46.269Z,15.97
2018-04-17T19:42:12.521Z,15.90
2018-04-17T19:44:38.763Z,14.80
2018-04-17T19:47:05.746Z,14.53
2018-04-17T19:49:32.064Z,15.63
2018-04-17T19:51:58.294Z,14.70
2018-04-17T19:54:25.424Z,13.67
2018-04-17T19:56:53.169Z,15.03
2018-04-17T19:59:19.439Z,16.90
2018-04-17T20:01:45.711Z,14.30
2018-04-17T20:04:11.963Z,15.20
2018-04-17T20:06:38.253Z,12.67
2018-04-17T20:09:04.635Z,15.67
2018-04-17T20:11:30.967Z,15.03
2018-04-17T20:13:57.264Z,15.00
2018-04-17T20:16:23.659Z,15.37
2018-04-17T20:18:50.320Z,17.17
2018-04-17T20:21:16.585Z,15.27
2018-04-17T20:23:42.868Z,15.00
2018-04-17T20:26:09.175Z,15.57
2018-04-17T20:28:36.221Z,15.87
2018-04-17T20:31:03.240Z,17.23
2018-04-17T20:33:29.524Z,17.13
2018-04-17T20:35:55.927Z,17.07
2018-04-17T20:38:23.214Z,15.90
2018-04-17T20:40:49.485Z,16.80
2018-04-17T20:43:15.809Z,15.93
2018-04-17T20:45:42.094Z,17.67
2018-04-17T20:48:08.540Z,17.57
2018-04-17T20:50:34.807Z,17.73
2018-04-17T20:53:01.268Z,16.47
2018-04-17T20:55:28.540Z,17.17
2018-04-17T20:57:54.893Z,16.40
2018-04-17T21:00:21.181Z,16.30
2018-04-17T21:02:48.186Z,15.50
2018-04-17T21:05:14.488Z,16.90
2018-04-17T21:07:40.720Z,15.70
2018-04-17T21:10:07.083Z,16.23
2018-04-17T21:12:33.370Z,16.50
2018-04-17T21:15:00.075Z,17.80
2018-04-17T21:17:26.389Z,15.93
2018-04-17T21:19:52.628Z,17.50
2018-04-17T21:22:18.910Z,17.00
2018-04-17T21:24:45.197Z,16.07
2018-04-17T21:27:11.457Z,16.00
2018-04-17T21:29:38.812Z,15.70
2018-04-17T21:32:05.789Z,15.80
2018-04-17T21:34:32.084Z,16.40
2018-04-17T21:36:59.154Z,15.67
2018-04-17T21:39:25.459Z,15.90
2018-04-17T21:41:52.612Z,15.80
2018-04-17T21:44:19.606Z,16.70
2018-04-17T21:46:45.916Z,16.63
2018-04-17T21:49:12.262Z,15.23
2018-04-17T21:51:45.550Z,15.23
2018-04-17T21:54:11.929Z,13.43
2018-04-17T21:56:38.341Z,16.30
2018-04-17T21:59:05.248Z,16.47
2018-04-17T22:01:31.500Z,15.50
2018-04-17T22:03:57.797Z,15.80
2018-04-17T22:06:24.847Z,16.37
2018-04-17T22:08:51.850Z,15.60
2018-04-17T22:11:18.175Z,15.93
2018-04-17T22:13:44.700Z,15.50
2018-04-17T22:16:10.953Z,14.90
2018-04-17T22:18:37.311Z,16.10
2018-04-17T22:21:04.322Z,15.37
2018-04-17T22:23:30.610Z,15.80
2018-04-17T22:25:56.860Z,16.50
2018-04-17T22:28:23.123Z,16.90
2018-04-17T22:30:49.552Z,16.73
2018-04-17T22:33:15.815Z,15.63
2018-04-17T22:35:42.833Z,16.17
2018-04-17T22:38:09.046Z,17.73
2018-04-17T22:40:35.323Z,17.20
2018-04-17T22:43:02.423Z,15.37
2018-04-17T22:45:28.729Z,15.57
2018-04-17T22:47:55.262Z,18.10
2018-04-17T22:50:21.587Z,16.60
2018-04-17T22:52:48.272Z,16.97
2018-04-17T22:55:14.541Z,20.70
2018-04-17T22:57:41.533Z,17.67
2018-04-17T23:00:07.834Z,18.30
2018-04-17T23:02:34.176Z,18.77
2018-04-17T23:05:00.833Z,15.60
2018-04-17T23:07:27.084Z,14.97
2018-04-17T23:09:53.325Z,17.23
2018-04-17T23:12:20.354Z,14.40
2018-04-17T23:14:46.696Z,15.10
2018-04-17T23:17:19.884Z,16.87
2018-04-17T23:19:47.224Z,16.57
2018-04-17T23:22:13.495Z,17.97
2018-04-17T23:24:40.517Z,17.37
2018-04-17T23:27:06.839Z,17.97
2018-04-17T23:29:33.046Z,17.30
2018-04-17T23:31:59.287Z,17.43
2018-04-17T23:34:25.539Z,17.20
2018-04-17T23:36:51.800Z,17.17
2018-04-17T23:39:18.096Z,16.17
2018-04-17T23:41:44.408Z,17.43
2018-04-17T23:44:10.654Z,18.03
2018-04-17T23:46:37.055Z,16.37
2018-04-17T23:49:03.344Z,17.50
2018-04-17T23:51:29.581Z,16.30
2018-04-17T23:53:55.845Z,17.13
2018-04-17T23:56:22.204Z,17.63
2018-04-17T23:58:48.472Z,17.00
